sensor_id;sensor_type;location;lat;lon;timestamp;temperature;humidity
44607;DHT22;30315;46.072;14.474;2024-03-02T00:01:12;12.40;93.50
44607;DHT22;30315;46.072;14.474;2024-03-02T00:03:42;12.40;93.30
44607;DHT22;30315;46.072;14.474;2024-03-02T00:06:10;12.40;93.30
44607;DHT22;30315;46.072;14.474;2024-03-02T00:08:39;12.30;93.30
44607;DHT22;30315;46.072;14.474;2024-03-02T00:11:11;12.30;93.20
44607;DHT22;30315;46.072;14.474;2024-03-02T00:13:41;12.30;93.20
44607;DHT22;30315;46.072;14.474;2024-03-02T00:16:08;12.30;93.30
44607;DHT22;30315;46.072;14.474;2024-03-02T00:18:36;12.30;93.50
44607;DHT22;30315;46.072;14.474;2024-03-02T00:21:06;12.20;93.50
44607;DHT22;30315;46.072;14.474;2024-03-02T00:23:38;12.30;93.70
44607;DHT22;30315;46.072;14.474;2024-03-02T00:26:08;12.30;93.80
44607;DHT22;30315;46.072;14.474;2024-03-02T00:28:40;12.30;93.90
44607;DHT22;30315;46.072;14.474;2024-03-02T00:31:08;12.30;94.00
44607;DHT22;30315;46.072;14.474;2024-03-02T00:33:42;12.30;94.10
44607;DHT22;30315;46.072;14.474;2024-03-02T00:36:16;12.30;94.10
44607;DHT22;30315;46.072;14.474;2024-03-02T00:38:51;12.30;94.00
44607;DHT22;30315;46.072;14.474;2024-03-02T00:44:00;12.30;93.90
44607;DHT22;30315;46.072;14.474;2024-03-02T00:46:37;12.30;94.00
44607;DHT22;30315;46.072;14.474;2024-03-02T00:49:25;12.30;93.90
44607;DHT22;30315;46.072;14.474;2024-03-02T00:51:55;12.20;94.00
44607;DHT22;30315;46.072;14.474;2024-03-02T00:54:24;12.30;94.10
44607;DHT22;30315;46.072;14.474;2024-03-02T00:56:55;12.30;94.30
44607;DHT22;30315;46.072;14.474;2024-03-02T00:59:25;12.20;94.30
44607;DHT22;30315;46.072;14.474;2024-03-02T01:01:52;12.20;94.40
44607;DHT22;30315;46.072;14.474;2024-03-02T01:04:21;12.20;94.40
44607;DHT22;30315;46.072;14.474;2024-03-02T01:06:51;12.30;94.50
44607;DHT22;30315;46.072;14.474;2024-03-02T01:09:18;12.20;94.80
44607;DHT22;30315;46.072;14.474;2024-03-02T01:11:50;12.20;94.50
44607;DHT22;30315;46.072;14.474;2024-03-02T01:14:21;12.20;94.40
44607;DHT22;30315;46.072;14.474;2024-03-02T01:16:49;12.30;94.50
44607;DHT22;30315;46.072;14.474;2024-03-02T01:19:18;12.20;94.40
44607;DHT22;30315;46.072;14.474;2024-03-02T01:21:47;12.20;94.40
44607;DHT22;30315;46.072;14.474;2024-03-02T01:24:15;12.20;94.60
44607;DHT22;30315;46.072;14.474;2024-03-02T01:26:44;12.20;94.40
44607;DHT22;30315;46.072;14.474;2024-03-02T01:29:15;12.20;94.40
44607;DHT22;30315;46.072;14.474;2024-03-02T01:31:42;12.30;94.50
44607;DHT22;30315;46.072;14.474;2024-03-02T01:34:10;12.30;94.50
44607;DHT22;30315;46.072;14.474;2024-03-02T01:36:41;12.30;94.50
44607;DHT22;30315;46.072;14.474;2024-03-02T01:39:09;12.20;94.50
44607;DHT22;30315;46.072;14.474;2024-03-02T01:41:37;12.20;94.30
44607;DHT22;30315;46.072;14.474;2024-03-02T01:44:08;12.30;94.40
44607;DHT22;30315;46.072;14.474;2024-03-02T01:46:37;12.20;94.20
44607;DHT22;30315;46.072;14.474;2024-03-02T01:49:04;12.20;94.20
44607;DHT22;30315;46.072;14.474;2024-03-02T01:51:33;12.20;94.20
44607;DHT22;30315;46.072;14.474;2024-03-02T01:54:02;12.20;94.10
44607;DHT22;30315;46.072;14.474;2024-03-02T01:56:29;12.20;94.10
44607;DHT22;30315;46.072;14.474;2024-03-02T01:58:57;12.20;94.10
44607;DHT22;30315;46.072;14.474;2024-03-02T02:01:26;12.20;94.10
44607;DHT22;30315;46.072;14.474;2024-03-02T02:03:55;12.20;94.10
44607;DHT22;30315;46.072;14.474;2024-03-02T02:06:23;12.20;94.10
44607;DHT22;30315;46.072;14.474;2024-03-02T02:08:50;12.20;94.10
44607;DHT22;30315;46.072;14.474;2024-03-02T02:11:19;12.20;94.10
44607;DHT22;30315;46.072;14.474;2024-03-02T02:13:49;12.20;94.00
44607;DHT22;30315;46.072;14.474;2024-03-02T02:16:18;12.20;94.10
44607;DHT22;30315;46.072;14.474;2024-03-02T02:18:47;12.20;94.00
44607;DHT22;30315;46.072;14.474;2024-03-02T02:21:22;12.20;94.00
44607;DHT22;30315;46.072;14.474;2024-03-02T02:23:49;12.20;93.90
44607;DHT22;30315;46.072;14.474;2024-03-02T02:33:05;12.20;93.90
44607;DHT22;30315;46.072;14.474;2024-03-02T02:35:32;12.20;93.90
44607;DHT22;30315;46.072;14.474;2024-03-02T02:38:00;12.20;93.90
44607;DHT22;30315;46.072;14.474;2024-03-02T02:40:27;12.20;94.00
44607;DHT22;30315;46.072;14.474;2024-03-02T02:42:59;12.20;94.00
44607;DHT22;30315;46.072;14.474;2024-03-02T02:45:27;12.20;93.90
44607;DHT22;30315;46.072;14.474;2024-03-02T02:47:54;12.20;93.80
44607;DHT22;30315;46.072;14.474;2024-03-02T02:50:24;12.20;93.70
44607;DHT22;30315;46.072;14.474;2024-03-02T02:52:51;12.20;93.70
44607;DHT22;30315;46.072;14.474;2024-03-02T02:55:18;12.20;93.70
44607;DHT22;30315;46.072;14.474;2024-03-02T02:57:50;12.20;93.60
44607;DHT22;30315;46.072;14.474;2024-03-02T03:00:17;12.20;93.60
44607;DHT22;30315;46.072;14.474;2024-03-02T03:02:47;12.20;93.60
44607;DHT22;30315;46.072;14.474;2024-03-02T03:05:18;12.20;93.60
44607;DHT22;30315;46.072;14.474;2024-03-02T03:07:46;12.10;93.60
44607;DHT22;30315;46.072;14.474;2024-03-02T03:10:19;12.10;93.70
44607;DHT22;30315;46.072;14.474;2024-03-02T03:12:49;12.10;93.70
44607;DHT22;30315;46.072;14.474;2024-03-02T03:15:16;12.10;93.70
44607;DHT22;30315;46.072;14.474;2024-03-02T03:17:45;12.10;93.70
44607;DHT22;30315;46.072;14.474;2024-03-02T03:20:16;12.10;93.70
44607;DHT22;30315;46.072;14.474;2024-03-02T03:22:44;12.10;93.90
44607;DHT22;30315;46.072;14.474;2024-03-02T03:25:13;12.10;93.90
44607;DHT22;30315;46.072;14.474;2024-03-02T03:27:40;12.10;93.90
44607;DHT22;30315;46.072;14.474;2024-03-02T03:30:09;12.10;93.80
44607;DHT22;30315;46.072;14.474;2024-03-02T03:32:38;12.10;93.80
44607;DHT22;30315;46.072;14.474;2024-03-02T03:35:06;12.10;93.80
44607;DHT22;30315;46.072;14.474;2024-03-02T03:37:33;12.10;93.90
44607;DHT22;30315;46.072;14.474;2024-03-02T03:40:05;12.10;94.00
44607;DHT22;30315;46.072;14.474;2024-03-02T03:42:39;12.10;94.00
44607;DHT22;30315;46.072;14.474;2024-03-02T03:45:07;12.10;94.10
44607;DHT22;30315;46.072;14.474;2024-03-02T03:47:34;12.00;94.00
44607;DHT22;30315;46.072;14.474;2024-03-02T03:50:01;12.00;94.00
44607;DHT22;30315;46.072;14.474;2024-03-02T03:52:36;12.10;94.00
44607;DHT22;30315;46.072;14.474;2024-03-02T03:55:04;12.10;94.00
44607;DHT22;30315;46.072;14.474;2024-03-02T03:57:35;12.10;94.10
44607;DHT22;30315;46.072;14.474;2024-03-02T04:00:04;12.10;94.10
44607;DHT22;30315;46.072;14.474;2024-03-02T04:02:40;12.10;94.10
44607;DHT22;30315;46.072;14.474;2024-03-02T04:05:09;12.10;94.10
44607;DHT22;30315;46.072;14.474;2024-03-02T04:07:38;12.10;94.10
44607;DHT22;30315;46.072;14.474;2024-03-02T04:10:12;12.10;94.00
44607;DHT22;30315;46.072;14.474;2024-03-02T04:12:43;12.10;94.00
44607;DHT22;30315;46.072;14.474;2024-03-02T04:15:10;12.10;94.00
44607;DHT22;30315;46.072;14.474;2024-03-02T04:17:38;12.10;94.00
44607;DHT22;30315;46.072;14.474;2024-03-02T04:20:09;12.10;94.00
44607;DHT22;30315;46.072;14.474;2024-03-02T04:22:39;12.20;94.10
44607;DHT22;30315;46.072;14.474;2024-03-02T04:25:06;12.10;94.00
44607;DHT22;30315;46.072;14.474;2024-03-02T04:27:38;12.20;93.90
44607;DHT22;30315;46.072;14.474;2024-03-02T04:30:07;12.10;93.90
44607;DHT22;30315;46.072;14.474;2024-03-02T04:32:35;12.10;93.90
44607;DHT22;30315;46.072;14.474;2024-03-02T04:35:06;12.10;93.80
44607;DHT22;30315;46.072;14.474;2024-03-02T04:37:39;12.00;93.80
44607;DHT22;30315;46.072;14.474;2024-03-02T04:40:09;12.10;93.80
44607;DHT22;30315;46.072;14.474;2024-03-02T04:42:36;12.10;93.80
44607;DHT22;30315;46.072;14.474;2024-03-02T04:45:05;12.00;93.80
44607;DHT22;30315;46.072;14.474;2024-03-02T04:47:37;12.10;93.70
44607;DHT22;30315;46.072;14.474;2024-03-02T04:50:05;12.00;93.70
44607;DHT22;30315;46.072;14.474;2024-03-02T04:52:32;12.00;93.70
44607;DHT22;30315;46.072;14.474;2024-03-02T04:55:00;12.00;93.70
44607;DHT22;30315;46.072;14.474;2024-03-02T04:57:47;12.00;93.60
44607;DHT22;30315;46.072;14.474;2024-03-02T05:00:22;12.00;93.70
44607;DHT22;30315;46.072;14.474;2024-03-02T05:02:49;12.00;93.70
44607;DHT22;30315;46.072;14.474;2024-03-02T05:05:17;12.00;93.80
44607;DHT22;30315;46.072;14.474;2024-03-02T05:07:49;11.90;93.60
44607;DHT22;30315;46.072;14.474;2024-03-02T05:10:16;12.00;93.60
44607;DHT22;30315;46.072;14.474;2024-03-02T05:12:43;12.00;93.60
44607;DHT22;30315;46.072;14.474;2024-03-02T05:15:15;12.00;93.60
44607;DHT22;30315;46.072;14.474;2024-03-02T05:17:44;12.00;93.70
44607;DHT22;30315;46.072;14.474;2024-03-02T05:20:12;12.00;93.70
44607;DHT22;30315;46.072;14.474;2024-03-02T05:22:41;11.90;93.60
44607;DHT22;30315;46.072;14.474;2024-03-02T05:25:11;11.90;93.70
44607;DHT22;30315;46.072;14.474;2024-03-02T05:27:38;11.80;93.70
44607;DHT22;30315;46.072;14.474;2024-03-02T05:30:08;11.80;93.70
44607;DHT22;30315;46.072;14.474;2024-03-02T05:32:35;11.90;93.70
44607;DHT22;30315;46.072;14.474;2024-03-02T05:35:04;11.80;93.70
44607;DHT22;30315;46.072;14.474;2024-03-02T05:37:32;11.90;93.80
44607;DHT22;30315;46.072;14.474;2024-03-02T05:39:59;11.80;93.80
44607;DHT22;30315;46.072;14.474;2024-03-02T05:42:28;11.90;93.80
44607;DHT22;30315;46.072;14.474;2024-03-02T05:44:58;11.80;93.70
44607;DHT22;30315;46.072;14.474;2024-03-02T05:47:25;11.80;93.80
44607;DHT22;30315;46.072;14.474;2024-03-02T05:49:54;11.90;93.80
44607;DHT22;30315;46.072;14.474;2024-03-02T05:52:25;11.90;93.80
44607;DHT22;30315;46.072;14.474;2024-03-02T05:54:53;11.90;93.90
44607;DHT22;30315;46.072;14.474;2024-03-02T05:57:20;11.90;93.90
44607;DHT22;30315;46.072;14.474;2024-03-02T06:00:10;11.90;93.90
44607;DHT22;30315;46.072;14.474;2024-03-02T06:02:40;11.90;93.90
44607;DHT22;30315;46.072;14.474;2024-03-02T06:05:08;11.90;93.90
44607;DHT22;30315;46.072;14.474;2024-03-02T06:07:37;12.00;93.90
44607;DHT22;30315;46.072;14.474;2024-03-02T06:10:07;12.00;94.00
44607;DHT22;30315;46.072;14.474;2024-03-02T06:12:40;12.00;93.90
44607;DHT22;30315;46.072;14.474;2024-03-02T06:15:10;12.00;93.80
44607;DHT22;30315;46.072;14.474;2024-03-02T06:17:37;12.00;93.80
44607;DHT22;30315;46.072;14.474;2024-03-02T06:20:07;12.00;93.70
44607;DHT22;30315;46.072;14.474;2024-03-02T06:22:37;12.00;93.80
44607;DHT22;30315;46.072;14.474;2024-03-02T06:25:06;12.00;93.70
44607;DHT22;30315;46.072;14.474;2024-03-02T06:27:34;12.00;93.70
44607;DHT22;30315;46.072;14.474;2024-03-02T06:30:01;12.00;93.60
44607;DHT22;30315;46.072;14.474;2024-03-02T06:32:31;12.00;93.70
44607;DHT22;30315;46.072;14.474;2024-03-02T06:35:00;12.00;93.60
44607;DHT22;30315;46.072;14.474;2024-03-02T06:37:29;12.00;93.60
44607;DHT22;30315;46.072;14.474;2024-03-02T06:39:56;12.00;93.70
44607;DHT22;30315;46.072;14.474;2024-03-02T06:42:26;12.00;93.70
44607;DHT22;30315;46.072;14.474;2024-03-02T06:44:55;12.10;93.80
44607;DHT22;30315;46.072;14.474;2024-03-02T06:47:22;12.10;93.80
44607;DHT22;30315;46.072;14.474;2024-03-02T06:49:50;12.10;93.70
44607;DHT22;30315;46.072;14.474;2024-03-02T06:52:19;12.20;93.60
44607;DHT22;30315;46.072;14.474;2024-03-02T06:54:51;12.10;93.50
44607;DHT22;30315;46.072;14.474;2024-03-02T06:57:18;12.20;93.50
44607;DHT22;30315;46.072;14.474;2024-03-02T06:59:47;12.10;93.40
44607;DHT22;30315;46.072;14.474;2024-03-02T07:02:19;12.20;93.40
44607;DHT22;30315;46.072;14.474;2024-03-02T07:04:46;12.20;93.40
44607;DHT22;30315;46.072;14.474;2024-03-02T07:07:14;12.20;93.40
44607;DHT22;30315;46.072;14.474;2024-03-02T07:09:41;12.20;93.50
44607;DHT22;30315;46.072;14.474;2024-03-02T07:12:08;12.20;93.60
44607;DHT22;30315;46.072;14.474;2024-03-02T07:14:36;12.20;93.70
44607;DHT22;30315;46.072;14.474;2024-03-02T07:17:24;12.30;93.80
44607;DHT22;30315;46.072;14.474;2024-03-02T07:19:56;12.30;93.80
44607;DHT22;30315;46.072;14.474;2024-03-02T07:22:23;12.40;93.90
44607;DHT22;30315;46.072;14.474;2024-03-02T07:24:52;12.40;93.80
44607;DHT22;30315;46.072;14.474;2024-03-02T07:27:24;12.40;93.60
44607;DHT22;30315;46.072;14.474;2024-03-02T07:29:51;12.50;93.50
44607;DHT22;30315;46.072;14.474;2024-03-02T07:32:18;12.50;93.40
44607;DHT22;30315;46.072;14.474;2024-03-02T07:34:46;12.50;93.40
44607;DHT22;30315;46.072;14.474;2024-03-02T07:37:13;12.60;93.40
44607;DHT22;30315;46.072;14.474;2024-03-02T07:39:40;12.50;93.40
44607;DHT22;30315;46.072;14.474;2024-03-02T07:42:08;12.50;93.40
44607;DHT22;30315;46.072;14.474;2024-03-02T07:44:35;12.60;93.40
44607;DHT22;30315;46.072;14.474;2024-03-02T07:47:04;12.60;93.30
44607;DHT22;30315;46.072;14.474;2024-03-02T07:49:31;12.70;93.40
44607;DHT22;30315;46.072;14.474;2024-03-02T07:51:59;12.70;93.60
44607;DHT22;30315;46.072;14.474;2024-03-02T07:54:28;12.80;93.30
44607;DHT22;30315;46.072;14.474;2024-03-02T07:56:59;12.70;93.10
44607;DHT22;30315;46.072;14.474;2024-03-02T07:59:26;12.80;93.20
44607;DHT22;30315;46.072;14.474;2024-03-02T08:01:54;12.70;93.10
44607;DHT22;30315;46.072;14.474;2024-03-02T08:04:26;12.80;93.20
44607;DHT22;30315;46.072;14.474;2024-03-02T08:06:53;12.80;93.30
44607;DHT22;30315;46.072;14.474;2024-03-02T08:09:21;12.80;93.10
44607;DHT22;30315;46.072;14.474;2024-03-02T08:11:53;12.80;93.00
44607;DHT22;30315;46.072;14.474;2024-03-02T08:14:25;12.90;93.00
44607;DHT22;30315;46.072;14.474;2024-03-02T08:16:52;12.90;92.90
44607;DHT22;30315;46.072;14.474;2024-03-02T08:19:21;12.90;92.90
44607;DHT22;30315;46.072;14.474;2024-03-02T08:21:49;12.90;92.90
44607;DHT22;30315;46.072;14.474;2024-03-02T08:24:17;13.00;93.00
44607;DHT22;30315;46.072;14.474;2024-03-02T08:26:50;13.10;93.10
44607;DHT22;30315;46.072;14.474;2024-03-02T08:29:21;13.10;93.00
44607;DHT22;30315;46.072;14.474;2024-03-02T08:31:48;13.20;93.10
44607;DHT22;30315;46.072;14.474;2024-03-02T08:34:16;13.30;92.90
44607;DHT22;30315;46.072;14.474;2024-03-02T08:36:47;13.40;93.00
44607;DHT22;30315;46.072;14.474;2024-03-02T08:39:15;13.40;93.00
44607;DHT22;30315;46.072;14.474;2024-03-02T08:41:44;13.60;92.80
44607;DHT22;30315;46.072;14.474;2024-03-02T08:44:16;13.70;92.50
44607;DHT22;30315;46.072;14.474;2024-03-02T08:46:44;13.70;92.10
44607;DHT22;30315;46.072;14.474;2024-03-02T08:49:11;13.90;91.80
44607;DHT22;30315;46.072;14.474;2024-03-02T08:51:41;13.90;91.60
44607;DHT22;30315;46.072;14.474;2024-03-02T08:54:08;13.90;91.20
44607;DHT22;30315;46.072;14.474;2024-03-02T08:56:35;14.00;90.80
44607;DHT22;30315;46.072;14.474;2024-03-02T08:59:07;14.00;90.60
44607;DHT22;30315;46.072;14.474;2024-03-02T09:01:34;14.00;90.50
44607;DHT22;30315;46.072;14.474;2024-03-02T09:04:03;14.10;90.20
44607;DHT22;30315;46.072;14.474;2024-03-02T09:06:33;14.10;89.80
44607;DHT22;30315;46.072;14.474;2024-03-02T09:09:00;14.10;89.40
44607;DHT22;30315;46.072;14.474;2024-03-02T09:11:29;14.10;89.60
44607;DHT22;30315;46.072;14.474;2024-03-02T09:13:57;14.10;90.00
44607;DHT22;30315;46.072;14.474;2024-03-02T09:16:26;14.20;90.10
44607;DHT22;30315;46.072;14.474;2024-03-02T09:18:58;14.30;90.00
44607;DHT22;30315;46.072;14.474;2024-03-02T09:21:30;14.40;90.10
44607;DHT22;30315;46.072;14.474;2024-03-02T09:23:57;14.50;90.20
44607;DHT22;30315;46.072;14.474;2024-03-02T09:26:24;14.60;90.10
44607;DHT22;30315;46.072;14.474;2024-03-02T09:28:52;14.70;89.20
44607;DHT22;30315;46.072;14.474;2024-03-02T09:31:19;14.70;89.00
44607;DHT22;30315;46.072;14.474;2024-03-02T09:33:47;14.80;89.10
44607;DHT22;30315;46.072;14.474;2024-03-02T09:36:18;14.80;88.50
44607;DHT22;30315;46.072;14.474;2024-03-02T09:38:46;14.80;88.00
44607;DHT22;30315;46.072;14.474;2024-03-02T09:41:16;14.90;88.30
44607;DHT22;30315;46.072;14.474;2024-03-02T09:43:46;14.90;87.40
44607;DHT22;30315;46.072;14.474;2024-03-02T09:46:14;14.90;87.20
44607;DHT22;30315;46.072;14.474;2024-03-02T09:48:44;14.90;87.90
44607;DHT22;30315;46.072;14.474;2024-03-02T09:51:14;14.90;87.50
44607;DHT22;30315;46.072;14.474;2024-03-02T09:53:42;15.00;87.10
44607;DHT22;30315;46.072;14.474;2024-03-02T09:56:12;15.00;87.00
44607;DHT22;30315;46.072;14.474;2024-03-02T09:58:41;15.10;87.20
44607;DHT22;30315;46.072;14.474;2024-03-02T10:01:09;15.20;87.60
44607;DHT22;30315;46.072;14.474;2024-03-02T10:03:40;15.30;87.30
44607;DHT22;30315;46.072;14.474;2024-03-02T10:06:36;15.40;87.40
44607;DHT22;30315;46.072;14.474;2024-03-02T10:09:03;15.50;87.50
44607;DHT22;30315;46.072;14.474;2024-03-02T10:11:33;15.60;86.00
44607;DHT22;30315;46.072;14.474;2024-03-02T10:14:09;15.60;85.20
44607;DHT22;30315;46.072;14.474;2024-03-02T10:16:42;15.70;85.60
44607;DHT22;30315;46.072;14.474;2024-03-02T10:19:19;15.80;85.60
44607;DHT22;30315;46.072;14.474;2024-03-02T10:21:49;15.90;85.20
44607;DHT22;30315;46.072;14.474;2024-03-02T10:24:20;16.00;85.10
44607;DHT22;30315;46.072;14.474;2024-03-02T10:26:48;16.00;85.20
44607;DHT22;30315;46.072;14.474;2024-03-02T10:29:19;16.20;85.20
44607;DHT22;30315;46.072;14.474;2024-03-02T10:31:47;16.20;83.90
44607;DHT22;30315;46.072;14.474;2024-03-02T10:34:15;16.20;83.40
44607;DHT22;30315;46.072;14.474;2024-03-02T10:36:45;16.30;83.00
44607;DHT22;30315;46.072;14.474;2024-03-02T10:39:14;16.30;82.40
44607;DHT22;30315;46.072;14.474;2024-03-02T10:41:41;16.30;81.90
44607;DHT22;30315;46.072;14.474;2024-03-02T10:44:11;16.30;81.50
44607;DHT22;30315;46.072;14.474;2024-03-02T10:46:38;16.20;80.90
44607;DHT22;30315;46.072;14.474;2024-03-02T10:49:06;16.20;80.80
44607;DHT22;30315;46.072;14.474;2024-03-02T10:51:37;16.20;80.90
44607;DHT22;30315;46.072;14.474;2024-03-02T10:54:05;16.30;81.30
44607;DHT22;30315;46.072;14.474;2024-03-02T10:59:17;16.40;81.00
44607;DHT22;30315;46.072;14.474;2024-03-02T11:01:47;16.50;80.30
44607;DHT22;30315;46.072;14.474;2024-03-02T11:04:18;16.60;80.40
44607;DHT22;30315;46.072;14.474;2024-03-02T11:06:50;16.60;80.20
44607;DHT22;30315;46.072;14.474;2024-03-02T11:09:22;16.70;79.30
44607;DHT22;30315;46.072;14.474;2024-03-02T11:12:00;16.80;79.70
44607;DHT22;30315;46.072;14.474;2024-03-02T11:14:32;16.80;79.00
44607;DHT22;30315;46.072;14.474;2024-03-02T11:17:02;16.80;77.40
44607;DHT22;30315;46.072;14.474;2024-03-02T11:19:31;16.80;77.40
44607;DHT22;30315;46.072;14.474;2024-03-02T11:22:03;16.90;77.50
44607;DHT22;30315;46.072;14.474;2024-03-02T11:24:31;16.90;77.70
44607;DHT22;30315;46.072;14.474;2024-03-02T11:27:07;16.90;77.50
44607;DHT22;30315;46.072;14.474;2024-03-02T11:32:03;17.00;77.10
44607;DHT22;30315;46.072;14.474;2024-03-02T11:34:36;16.90;76.10
44607;DHT22;30315;46.072;14.474;2024-03-02T11:37:08;16.90;76.40
44607;DHT22;30315;46.072;14.474;2024-03-02T11:39:38;17.00;76.80
44607;DHT22;30315;46.072;14.474;2024-03-02T11:42:09;17.00;76.60
44607;DHT22;30315;46.072;14.474;2024-03-02T11:44:42;17.00;75.80
44607;DHT22;30315;46.072;14.474;2024-03-02T11:47:11;17.10;76.20
44607;DHT22;30315;46.072;14.474;2024-03-02T11:49:49;17.10;76.00
44607;DHT22;30315;46.072;14.474;2024-03-02T11:52:17;17.10;75.90
44607;DHT22;30315;46.072;14.474;2024-03-02T11:54:46;17.20;76.40
44607;DHT22;30315;46.072;14.474;2024-03-02T11:57:16;17.30;76.00
44607;DHT22;30315;46.072;14.474;2024-03-02T11:59:44;17.30;74.80
44607;DHT22;30315;46.072;14.474;2024-03-02T12:02:16;17.40;74.30
44607;DHT22;30315;46.072;14.474;2024-03-02T12:04:46;17.40;72.80
44607;DHT22;30315;46.072;14.474;2024-03-02T12:07:21;17.40;72.70
44607;DHT22;30315;46.072;14.474;2024-03-02T12:10:09;17.60;73.60
44607;DHT22;30315;46.072;14.474;2024-03-02T12:12:37;17.70;72.70
44607;DHT22;30315;46.072;14.474;2024-03-02T12:15:06;17.70;72.40
44607;DHT22;30315;46.072;14.474;2024-03-02T12:17:34;17.70;71.80
44607;DHT22;30315;46.072;14.474;2024-03-02T12:20:01;17.80;71.80
44607;DHT22;30315;46.072;14.474;2024-03-02T12:22:34;17.80;72.10
44607;DHT22;30315;46.072;14.474;2024-03-02T12:25:06;17.60;71.60
44607;DHT22;30315;46.072;14.474;2024-03-02T12:27:34;17.60;71.90
44607;DHT22;30315;46.072;14.474;2024-03-02T12:30:04;17.60;72.30
44607;DHT22;30315;46.072;14.474;2024-03-02T12:32:33;17.60;72.50
44607;DHT22;30315;46.072;14.474;2024-03-02T12:35:01;17.60;72.40
44607;DHT22;30315;46.072;14.474;2024-03-02T12:37:28;17.50;73.10
44607;DHT22;30315;46.072;14.474;2024-03-02T12:39:55;17.50;72.60
44607;DHT22;30315;46.072;14.474;2024-03-02T12:42:24;17.50;73.40
44607;DHT22;30315;46.072;14.474;2024-03-02T12:44:52;17.40;73.60
44607;DHT22;30315;46.072;14.474;2024-03-02T12:47:24;17.30;73.30
44607;DHT22;30315;46.072;14.474;2024-03-02T12:49:51;17.30;72.40
44607;DHT22;30315;46.072;14.474;2024-03-02T12:52:19;17.20;72.00
44607;DHT22;30315;46.072;14.474;2024-03-02T12:54:51;17.20;72.10
44607;DHT22;30315;46.072;14.474;2024-03-02T12:57:19;17.10;72.30
44607;DHT22;30315;46.072;14.474;2024-03-02T12:59:47;17.20;72.30
44607;DHT22;30315;46.072;14.474;2024-03-02T13:02:18;17.10;71.80
44607;DHT22;30315;46.072;14.474;2024-03-02T13:04:52;17.10;71.80
44607;DHT22;30315;46.072;14.474;2024-03-02T13:07:27;17.10;71.80
44607;DHT22;30315;46.072;14.474;2024-03-02T13:09:55;17.10;72.10
44607;DHT22;30315;46.072;14.474;2024-03-02T13:12:25;17.10;72.00
44607;DHT22;30315;46.072;14.474;2024-03-02T13:14:52;17.20;72.90
44607;DHT22;30315;46.072;14.474;2024-03-02T13:17:20;17.30;73.10
44607;DHT22;30315;46.072;14.474;2024-03-02T13:19:58;17.50;73.10
44607;DHT22;30315;46.072;14.474;2024-03-02T13:22:28;17.70;73.60
44607;DHT22;30315;46.072;14.474;2024-03-02T13:24:57;17.90;73.60
44607;DHT22;30315;46.072;14.474;2024-03-02T13:27:28;18.20;73.70
44607;DHT22;30315;46.072;14.474;2024-03-02T13:29:55;18.30;71.90
44607;DHT22;30315;46.072;14.474;2024-03-02T13:32:22;18.40;70.80
44607;DHT22;30315;46.072;14.474;2024-03-02T13:34:53;18.50;69.80
44607;DHT22;30315;46.072;14.474;2024-03-02T13:37:22;18.60;69.60
44607;DHT22;30315;46.072;14.474;2024-03-02T13:39:49;18.70;69.10
44607;DHT22;30315;46.072;14.474;2024-03-02T13:42:19;18.70;68.30
44607;DHT22;30315;46.072;14.474;2024-03-02T13:44:51;18.60;68.70
44607;DHT22;30315;46.072;14.474;2024-03-02T13:47:19;18.60;67.70
44607;DHT22;30315;46.072;14.474;2024-03-02T13:49:48;18.60;67.60
44607;DHT22;30315;46.072;14.474;2024-03-02T13:52:19;18.50;67.00
44607;DHT22;30315;46.072;14.474;2024-03-02T13:54:47;18.40;65.70
44607;DHT22;30315;46.072;14.474;2024-03-02T13:57:15;18.30;65.50
44607;DHT22;30315;46.072;14.474;2024-03-02T13:59:55;18.20;65.10
44607;DHT22;30315;46.072;14.474;2024-03-02T14:02:22;18.10;65.90
44607;DHT22;30315;46.072;14.474;2024-03-02T14:04:51;17.90;66.40
44607;DHT22;30315;46.072;14.474;2024-03-02T14:07:20;17.70;67.00
44607;DHT22;30315;46.072;14.474;2024-03-02T14:09:48;17.30;68.10
44607;DHT22;30315;46.072;14.474;2024-03-02T14:12:17;17.40;68.40
44607;DHT22;30315;46.072;14.474;2024-03-02T14:14:47;17.10;68.60
44607;DHT22;30315;46.072;14.474;2024-03-02T14:17:16;17.00;69.20
44607;DHT22;30315;46.072;14.474;2024-03-02T14:19:43;17.10;70.20
44607;DHT22;30315;46.072;14.474;2024-03-02T14:22:11;17.10;70.40
44607;DHT22;30315;46.072;14.474;2024-03-02T14:24:41;17.10;70.90
44607;DHT22;30315;46.072;14.474;2024-03-02T14:27:15;17.00;71.30
44607;DHT22;30315;46.072;14.474;2024-03-02T14:30:00;17.00;71.80
44607;DHT22;30315;46.072;14.474;2024-03-02T14:32:32;17.00;72.10
44607;DHT22;30315;46.072;14.474;2024-03-02T14:34:59;16.90;71.60
44607;DHT22;30315;46.072;14.474;2024-03-02T14:37:26;16.90;71.90
44607;DHT22;30315;46.072;14.474;2024-03-02T14:39:56;16.90;72.30
44607;DHT22;30315;46.072;14.474;2024-03-02T14:42:24;16.90;72.20
44607;DHT22;30315;46.072;14.474;2024-03-02T14:44:51;16.90;71.70
44607;DHT22;30315;46.072;14.474;2024-03-02T14:47:20;16.70;71.10
44607;DHT22;30315;46.072;14.474;2024-03-02T14:49:48;16.60;71.20
44607;DHT22;30315;46.072;14.474;2024-03-02T14:52:15;16.50;71.10
44607;DHT22;30315;46.072;14.474;2024-03-02T14:54:44;16.50;71.90
44607;DHT22;30315;46.072;14.474;2024-03-02T14:57:11;16.70;72.10
44607;DHT22;30315;46.072;14.474;2024-03-02T14:59:39;16.90;71.10
44607;DHT22;30315;46.072;14.474;2024-03-02T15:02:08;17.20;71.10
44607;DHT22;30315;46.072;14.474;2024-03-02T15:04:35;17.50;69.90
44607;DHT22;30315;46.072;14.474;2024-03-02T15:07:03;17.80;68.30
44607;DHT22;30315;46.072;14.474;2024-03-02T15:09:32;18.00;67.80
44607;DHT22;30315;46.072;14.474;2024-03-02T15:12:02;18.30;66.80
44607;DHT22;30315;46.072;14.474;2024-03-02T15:14:30;18.30;65.70
44607;DHT22;30315;46.072;14.474;2024-03-02T15:17:01;18.30;64.80
44607;DHT22;30315;46.072;14.474;2024-03-02T15:19:29;18.20;64.90
44607;DHT22;30315;46.072;14.474;2024-03-02T15:21:56;18.10;65.10
44607;DHT22;30315;46.072;14.474;2024-03-02T15:24:26;18.00;64.90
44607;DHT22;30315;46.072;14.474;2024-03-02T15:26:55;17.80;64.70
44607;DHT22;30315;46.072;14.474;2024-03-02T15:29:26;17.70;64.90
44607;DHT22;30315;46.072;14.474;2024-03-02T15:31:58;17.50;65.70
44607;DHT22;30315;46.072;14.474;2024-03-02T15:34:26;17.30;65.30
44607;DHT22;30315;46.072;14.474;2024-03-02T15:36:53;17.10;65.80
44607;DHT22;30315;46.072;14.474;2024-03-02T15:39:24;17.00;66.40
44607;DHT22;30315;46.072;14.474;2024-03-02T15:41:52;16.90;66.70
44607;DHT22;30315;46.072;14.474;2024-03-02T15:44:19;16.80;67.40